createdAt,value
2023-05-20T00:00:24.426Z,99.90
2023-05-20T00:02:52.721Z,99.90
2023-05-20T00:05:21.077Z,99.90
2023-05-20T00:07:49.295Z,99.90
2023-05-20T00:10:17.761Z,99.90
2023-05-20T00:12:47.433Z,99.90
2023-05-20T00:15:15.774Z,99.90
2023-05-20T00:17:44.202Z,99.90
2023-05-20T00:20:13.232Z,99.90
2023-05-20T00:22:41.516Z,99.90
2023-05-20T00:25:11.339Z,99.90
2023-05-20T00:27:39.521Z,99.90
2023-05-20T00:30:10.977Z,99.90
2023-05-20T00:32:39.397Z,99.90
2023-05-20T00:35:09.394Z,99.90
2023-05-20T00:37:37.655Z,99.90
2023-05-20T00:40:06.730Z,99.90
2023-05-20T00:42:35.216Z,99.90
2023-05-20T00:45:03.921Z,99.90
2023-05-20T00:47:36.647Z,99.90
2023-05-20T00:50:05.940Z,99.90
2023-05-20T00:52:35.016Z,99.90
2023-05-20T00:55:03.442Z,99.90
2023-05-20T00:57:34.209Z,99.90
2023-05-20T01:00:02.894Z,99.90
2023-05-20T01:02:33.262Z,99.90
2023-05-20T01:05:01.556Z,99.90
2023-05-20T01:07:29.972Z,99.90
2023-05-20T01:09:58.433Z,99.90
2023-05-20T01:12:29.787Z,99.90
2023-05-20T01:15:04.390Z,99.90
2023-05-20T01:17:38.076Z,99.90
2023-05-20T01:20:10.753Z,99.90
2023-05-20T01:22:47.911Z,99.90
2023-05-20T01:25:16.163Z,99.90
2023-05-20T01:27:45.686Z,99.90
2023-05-20T01:30:15.739Z,99.90
2023-05-20T01:32:49.578Z,99.90
2023-05-20T01:35:19.245Z,99.90
2023-05-20T01:37:54.383Z,99.90
2023-05-20T01:40:24.815Z,99.90
2023-05-20T01:42:55.278Z,99.90
2023-05-20T01:45:25.370Z,99.90
2023-05-20T01:47:53.921Z,99.90
2023-05-20T01:50:22.402Z,99.90
2023-05-20T01:52:52.339Z,99.90
2023-05-20T01:55:20.762Z,99.90
2023-05-20T01:57:48.971Z,99.90
2023-05-20T02:00:17.516Z,99.90
2023-05-20T02:02:46.412Z,99.90
2023-05-20T02:05:17.511Z,99.90
2023-05-20T02:07:45.898Z,99.90
2023-05-20T02:10:16.263Z,99.90
2023-05-20T02:12:44.571Z,99.90
2023-05-20T02:15:13.020Z,99.90
2023-05-20T02:17:43.783Z,99.90
2023-05-20T02:20:14.033Z,99.90
2023-05-20T02:22:42.353Z,99.90
2023-05-20T02:25:12.576Z,99.90
2023-05-20T02:27:42.334Z,99.90
2023-05-20T02:30:11.593Z,99.90
2023-05-20T02:32:39.899Z,99.90
2023-05-20T02:35:08.762Z,99.90
2023-05-20T02:37:39.090Z,99.90
2023-05-20T02:40:10.413Z,99.90
2023-05-20T02:42:42.214Z,99.90
2023-05-20T02:45:11.261Z,99.90
2023-05-20T02:47:40.409Z,99.90
2023-05-20T02:50:09.456Z,99.90
2023-05-20T02:52:40.080Z,99.90
2023-05-20T02:55:09.607Z,99.90
2023-05-20T02:57:39.294Z,99.90
2023-05-20T03:00:13.689Z,99.90
2023-05-20T03:02:41.993Z,99.90
2023-05-20T03:05:11.078Z,99.90
2023-05-20T03:07:39.704Z,99.90
2023-05-20T03:10:09.611Z,99.90
2023-05-20T03:12:40.333Z,99.90
2023-05-20T03:15:13.551Z,99.90
2023-05-20T03:17:41.859Z,99.90
2023-05-20T03:20:12.903Z,99.90
2023-05-20T03:22:43.933Z,99.90
2023-05-20T03:25:12.687Z,99.90
2023-05-20T03:27:44.872Z,99.90
2023-05-20T03:30:15.290Z,99.90
2023-05-20T03:32:44.365Z,99.90
2023-05-20T03:35:13.022Z,99.90
2023-05-20T03:37:41.266Z,99.90
2023-05-20T03:40:11.368Z,99.90
2023-05-20T03:42:41.298Z,99.90
2023-05-20T03:45:11.097Z,99.90
2023-05-20T03:47:48.151Z,99.90
2023-05-20T03:50:19.104Z,99.90
2023-05-20T03:52:47.387Z,99.90
2023-05-20T03:55:17.932Z,99.90
2023-05-20T03:57:46.190Z,99.90
2023-05-20T04:00:16.120Z,99.90
2023-05-20T04:02:48.522Z,99.90
2023-05-20T04:05:20.283Z,99.90
2023-05-20T04:07:49.755Z,99.90
2023-05-20T04:10:20.641Z,99.90
2023-05-20T04:12:48.964Z,99.90
2023-05-20T04:15:17.550Z,99.90
2023-05-20T04:17:57.959Z,99.90
2023-05-20T04:20:27.002Z,99.90
2023-05-20T04:22:58.045Z,99.90
2023-05-20T04:25:28.778Z,99.90
2023-05-20T04:27:57.954Z,99.90
2023-05-20T04:30:26.410Z,99.90
2023-05-20T04:32:57.434Z,99.90
2023-05-20T04:35:26.258Z,99.90
2023-05-20T04:37:57.080Z,99.90
2023-05-20T04:40:25.416Z,99.90
2023-05-20T04:42:54.521Z,99.90
2023-05-20T04:45:23.409Z,99.90
2023-05-20T04:47:53.487Z,99.90
2023-05-20T04:50:23.367Z,99.90
2023-05-20T04:52:51.775Z,99.90
2023-05-20T04:55:25.003Z,99.90
2023-05-20T04:57:53.487Z,99.90
2023-05-20T05:00:21.713Z,99.90
2023-05-20T05:02:50.254Z,99.90
2023-05-20T05:05:18.799Z,99.90
2023-05-20T05:07:48.541Z,99.90
2023-05-20T05:10:16.869Z,99.90
2023-05-20T05:12:45.553Z,99.90
2023-05-20T05:15:13.906Z,99.90
2023-05-20T05:17:44.245Z,99.90
2023-05-20T05:20:13.039Z,99.90
2023-05-20T05:22:41.828Z,99.90
2023-05-20T05:25:12.612Z,99.90
2023-05-20T05:27:41.269Z,99.90
2023-05-20T05:30:11.545Z,99.90
2023-05-20T05:32:40.686Z,99.90
2023-05-20T05:35:09.634Z,99.90
2023-05-20T05:37:38.051Z,99.90
2023-05-20T05:40:09.038Z,99.90
2023-05-20T05:42:38.706Z,99.90
2023-05-20T05:45:09.510Z,99.90
2023-05-20T05:47:38.256Z,99.90
2023-05-20T05:50:07.074Z,99.90
2023-05-20T05:52:36.460Z,99.90
2023-05-20T05:55:10.756Z,99.90
2023-05-20T05:57:40.576Z,99.90
2023-05-20T06:00:11.083Z,99.90
2023-05-20T06:02:49.451Z,99.90
2023-05-20T06:05:33.133Z,99.90
2023-05-20T06:08:04.460Z,99.90
2023-05-20T06:10:34.757Z,99.90
2023-05-20T06:13:04.375Z,99.90
2023-05-20T06:15:33.654Z,99.90
2023-05-20T06:18:04.000Z,99.90
2023-05-20T06:20:33.556Z,99.90
2023-05-20T06:23:01.957Z,99.90
2023-05-20T06:25:39.644Z,99.90
2023-05-20T06:28:10.607Z,99.90
2023-05-20T06:30:39.062Z,99.90
2023-05-20T06:33:07.361Z,99.90
2023-05-20T06:35:36.345Z,99.90
2023-05-20T06:38:06.198Z,99.90
2023-05-20T06:40:35.376Z,99.90
2023-05-20T06:43:03.917Z,99.90
2023-05-20T06:45:51.894Z,99.90
2023-05-20T06:48:28.876Z,99.90
2023-05-20T06:50:59.667Z,99.90
2023-05-20T06:53:28.095Z,99.90
2023-05-20T06:55:56.775Z,99.90
2023-05-20T06:58:25.238Z,99.90
2023-05-20T07:00:55.740Z,99.90
2023-05-20T07:03:24.873Z,99.90
2023-05-20T07:05:55.585Z,99.90
2023-05-20T07:08:24.626Z,98.60
2023-05-20T07:10:53.103Z,97.00
2023-05-20T07:13:24.064Z,93.80
2023-05-20T07:15:55.900Z,92.50
2023-05-20T07:18:24.158Z,90.90
2023-05-20T07:20:56.895Z,89.40
2023-05-20T07:23:34.685Z,86.80
2023-05-20T07:26:03.268Z,82.90
2023-05-20T07:28:31.519Z,80.10
2023-05-20T07:31:01.175Z,77.70
2023-05-20T07:33:31.070Z,77.00
2023-05-20T07:36:00.274Z,74.00
2023-05-20T07:38:28.593Z,73.50
2023-05-20T07:41:01.104Z,71.70
2023-05-20T07:43:29.906Z,72.50
2023-05-20T07:46:02.242Z,71.00
2023-05-20T07:48:30.575Z,69.10
2023-05-20T07:50:59.904Z,70.20
2023-05-20T07:53:29.168Z,68.30
2023-05-20T07:55:57.532Z,68.10
2023-05-20T07:58:28.987Z,67.80
2023-05-20T08:00:57.560Z,65.90
2023-05-20T08:03:28.319Z,65.70
2023-05-20T08:06:02.411Z,65.00
2023-05-20T08:08:30.718Z,64.50
2023-05-20T08:11:06.713Z,65.50
2023-05-20T08:13:35.009Z,65.30
2023-05-20T08:16:07.359Z,65.30
2023-05-20T08:18:38.143Z,62.10
2023-05-20T08:21:08.102Z,62.70
2023-05-20T08:23:38.935Z,62.20
2023-05-20T08:26:08.829Z,61.70
2023-05-20T08:28:41.171Z,60.90
2023-05-20T08:31:09.878Z,60.80
2023-05-20T08:33:39.684Z,61.40
2023-05-20T08:36:09.028Z,61.00
2023-05-20T08:38:37.736Z,60.30
2023-05-20T08:41:06.068Z,60.50
2023-05-20T08:43:35.044Z,59.20
2023-05-20T08:46:06.616Z,59.10
2023-05-20T08:48:37.176Z,59.70
2023-05-20T08:51:10.526Z,59.80
2023-05-20T08:53:38.749Z,60.10
2023-05-20T08:56:10.814Z,59.80
2023-05-20T08:58:43.081Z,59.60
2023-05-20T09:01:11.428Z,59.80
2023-05-20T09:03:39.575Z,59.70
2023-05-20T09:06:10.280Z,59.30
2023-05-20T09:08:38.785Z,59.70
2023-05-20T09:11:07.184Z,59.90
2023-05-20T09:13:35.951Z,61.00
2023-05-20T09:16:04.514Z,60.60
2023-05-20T09:18:33.084Z,62.20
2023-05-20T09:21:07.068Z,63.90
2023-05-20T09:23:38.801Z,64.00
2023-05-20T09:26:07.214Z,64.30
2023-05-20T09:28:38.442Z,65.70
2023-05-20T09:31:08.888Z,66.60
2023-05-20T09:33:39.425Z,65.50
2023-05-20T09:36:09.961Z,63.80
2023-05-20T09:38:41.714Z,65.00
2023-05-20T09:41:15.418Z,64.80
2023-05-20T09:43:44.243Z,65.10
2023-05-20T09:46:13.078Z,66.00
2023-05-20T09:48:41.669Z,64.60
2023-05-20T09:51:11.500Z,64.70
2023-05-20T09:53:41.841Z,65.10
2023-05-20T09:56:10.090Z,66.20
2023-05-20T09:58:39.055Z,67.20
2023-05-20T10:01:08.438Z,67.50
2023-05-20T10:03:37.182Z,66.10
2023-05-20T10:06:25.920Z,65.20
2023-05-20T10:09:19.433Z,64.50
2023-05-20T10:11:56.513Z,64.60
2023-05-20T10:14:42.243Z,66.00
2023-05-20T10:17:18.038Z,68.00
2023-05-20T10:19:46.313Z,68.20
2023-05-20T10:22:14.726Z,69.00
2023-05-20T10:24:45.657Z,70.30
2023-05-20T10:27:17.220Z,69.30
2023-05-20T10:32:25.901Z,69.00
2023-05-20T10:34:55.652Z,67.80
2023-05-20T10:37:28.008Z,67.40
2023-05-20T10:40:08.468Z,67.50
2023-05-20T10:42:36.904Z,66.90
2023-05-20T10:45:06.169Z,67.00
2023-05-20T10:47:34.623Z,67.70
2023-05-20T10:50:04.997Z,68.90
2023-05-20T10:52:35.001Z,68.50
2023-05-20T10:55:04.963Z,67.40
2023-05-20T10:57:35.928Z,68.00
2023-05-20T11:00:06.775Z,67.70
2023-05-20T11:02:36.293Z,66.80
2023-05-20T11:05:06.736Z,67.70
2023-05-20T11:07:35.253Z,67.70
2023-05-20T11:10:03.874Z,67.60
2023-05-20T11:12:33.862Z,68.50
2023-05-20T11:15:05.305Z,69.50
2023-05-20T11:17:34.160Z,69.70
2023-05-20T11:20:02.471Z,69.10
2023-05-20T11:22:30.901Z,69.30
2023-05-20T11:24:59.167Z,69.10
2023-05-20T11:27:27.409Z,69.50
2023-05-20T11:29:55.663Z,70.60
2023-05-20T11:32:26.678Z,70.90
2023-05-20T11:34:55.111Z,71.70
2023-05-20T11:37:25.478Z,71.70
2023-05-20T11:40:07.828Z,70.30
2023-05-20T11:42:37.407Z,71.20
2023-05-20T11:45:14.419Z,72.00
2023-05-20T11:47:44.073Z,72.20
2023-05-20T11:50:17.980Z,72.80
2023-05-20T11:52:46.405Z,72.10
2023-05-20T11:55:16.466Z,71.80
2023-05-20T11:57:45.104Z,72.40
2023-05-20T12:00:14.302Z,72.20
2023-05-20T12:02:44.110Z,73.20
2023-05-20T12:05:12.917Z,73.30
2023-05-20T12:07:41.378Z,73.90
2023-05-20T12:10:11.168Z,73.70
2023-05-20T12:12:39.546Z,74.80
2023-05-20T12:15:08.568Z,74.40
2023-05-20T12:17:50.057Z,74.80
2023-05-20T12:20:21.038Z,74.80
2023-05-20T12:22:49.846Z,74.90
2023-05-20T12:25:19.350Z,75.70
2023-05-20T12:27:49.258Z,76.60
2023-05-20T12:30:18.816Z,77.10
2023-05-20T12:32:47.820Z,78.20
2023-05-20T12:35:17.953Z,78.40
2023-05-20T12:37:46.528Z,79.10
2023-05-20T12:40:15.279Z,79.40
2023-05-20T12:42:43.723Z,79.20
2023-05-20T12:45:13.500Z,79.50
2023-05-20T12:47:41.834Z,79.70
2023-05-20T12:50:10.929Z,80.00
2023-05-20T12:52:40.630Z,79.60
2023-05-20T12:55:13.845Z,79.70
2023-05-20T12:57:42.655Z,79.70
2023-05-20T13:00:12.660Z,80.00
2023-05-20T13:02:42.550Z,80.10
2023-05-20T13:05:11.772Z,80.90
2023-05-20T13:07:41.662Z,81.20
2023-05-20T13:10:11.651Z,81.60
2023-05-20T13:12:40.592Z,80.50
2023-05-20T13:15:09.957Z,81.00
2023-05-20T13:17:38.454Z,81.20
2023-05-20T13:20:07.926Z,81.70
2023-05-20T13:22:36.228Z,82.30
2023-05-20T13:25:06.781Z,82.70
2023-05-20T13:27:35.430Z,83.20
2023-05-20T13:30:04.206Z,83.10
2023-05-20T13:32:32.625Z,82.90
2023-05-20T13:35:01.004Z,82.90
2023-05-20T13:37:30.775Z,82.70
2023-05-20T13:39:58.990Z,82.80
2023-05-20T13:42:28.588Z,83.10
2023-05-20T13:44:56.776Z,83.40
2023-05-20T13:47:27.722Z,84.00
2023-05-20T13:49:56.113Z,84.00
2023-05-20T13:52:26.672Z,84.10
2023-05-20T13:54:54.865Z,84.50
2023-05-20T13:57:23.546Z,85.10
2023-05-20T13:59:53.222Z,85.00
2023-05-20T14:02:21.556Z,85.70
2023-05-20T14:04:49.850Z,86.10
2023-05-20T14:07:18.174Z,86.40
2023-05-20T14:09:46.447Z,86.80
2023-05-20T14:12:14.732Z,87.20
2023-05-20T14:14:43.084Z,87.40
2023-05-20T14:17:12.780Z,87.40
2023-05-20T14:19:41.185Z,87.70
2023-05-20T14:22:09.398Z,87.70
2023-05-20T14:24:37.643Z,87.60
2023-05-20T14:27:07.304Z,87.40
2023-05-20T14:29:35.623Z,87.20
2023-05-20T14:32:05.206Z,87.30
2023-05-20T14:34:35.006Z,87.30
2023-05-20T14:37:09.842Z,87.00
2023-05-20T14:39:38.309Z,87.10
2023-05-20T14:42:07.001Z,86.90
2023-05-20T14:44:35.496Z,86.70
2023-05-20T14:47:04.468Z,87.00
2023-05-20T14:49:34.430Z,86.60
2023-05-20T14:52:02.697Z,86.80
2023-05-20T14:54:33.074Z,86.60
2023-05-20T14:57:01.331Z,86.80
2023-05-20T14:59:29.615Z,86.70
2023-05-20T15:02:00.632Z,86.40
2023-05-20T15:04:28.934Z,86.10
2023-05-20T15:06:58.662Z,86.00
2023-05-20T15:09:27.196Z,85.80
2023-05-20T15:11:55.542Z,86.30
2023-05-20T15:14:23.710Z,87.00
2023-05-20T15:16:52.097Z,87.30
2023-05-20T15:19:22.925Z,87.70
2023-05-20T15:21:51.859Z,88.50
2023-05-20T15:24:22.132Z,88.20
2023-05-20T15:26:50.383Z,88.10
2023-05-20T15:29:18.683Z,88.00
2023-05-20T15:31:46.894Z,88.90
2023-05-20T15:34:15.186Z,88.40
2023-05-20T15:36:43.502Z,88.70
2023-05-20T15:39:11.997Z,89.30
2023-05-20T15:41:42.555Z,89.20
2023-05-20T15:44:12.050Z,89.10
2023-05-20T15:46:40.430Z,89.00
2023-05-20T15:49:08.810Z,89.30
2023-05-20T15:51:37.038Z,89.60
2023-05-20T15:54:05.329Z,90.10
2023-05-20T15:56:33.629Z,90.20
2023-05-20T15:59:03.305Z,90.20
2023-05-20T16:01:31.864Z,90.10
2023-05-20T16:04:00.292Z,90.20
2023-05-20T16:06:28.598Z,90.20
2023-05-20T16:08:57.094Z,90.60
2023-05-20T16:11:25.513Z,90.10
2023-05-20T16:13:53.752Z,90.20
2023-05-20T16:16:26.088Z,90.10
2023-05-20T16:18:54.659Z,90.10
2023-05-20T16:21:25.048Z,90.10
2023-05-20T16:23:53.801Z,90.20
2023-05-20T16:26:22.786Z,90.10
2023-05-20T16:28:51.090Z,90.10
2023-05-20T16:31:19.687Z,90.30
2023-05-20T16:33:49.299Z,90.30
2023-05-20T16:36:17.616Z,90.30
2023-05-20T16:38:48.397Z,90.20
2023-05-20T16:41:16.825Z,90.20
2023-05-20T16:43:45.206Z,90.30
2023-05-20T16:46:14.633Z,90.50
2023-05-20T16:48:45.331Z,90.70
2023-05-20T16:51:15.043Z,90.50
2023-05-20T16:53:45.542Z,90.40
2023-05-20T16:56:13.870Z,90.60
2023-05-20T16:58:42.136Z,90.70
2023-05-20T17:01:10.497Z,90.70
2023-05-20T17:03:38.854Z,90.80
2023-05-20T17:06:07.515Z,90.90
2023-05-20T17:08:38.244Z,91.10
2023-05-20T17:11:06.670Z,91.20
2023-05-20T17:13:34.915Z,91.20
2023-05-20T17:16:03.359Z,91.30
2023-05-20T17:18:31.745Z,91.30
2023-05-20T17:21:01.204Z,91.30
2023-05-20T17:23:29.495Z,91.40
2023-05-20T17:25:59.154Z,91.40
2023-05-20T17:28:27.625Z,91.40
2023-05-20T17:30:55.893Z,91.50
2023-05-20T17:33:24.645Z,91.60
2023-05-20T17:35:55.336Z,91.70
2023-05-20T17:38:26.210Z,91.80
2023-05-20T17:40:54.832Z,91.90
2023-05-20T17:43:25.648Z,92.00
2023-05-20T17:45:53.950Z,92.10
2023-05-20T17:48:22.277Z,92.10
2023-05-20T17:50:50.768Z,92.10
2023-05-20T17:53:21.084Z,92.30
2023-05-20T17:55:50.107Z,92.30
2023-05-20T17:58:18.604Z,92.30
2023-05-20T18:00:48.202Z,92.40
2023-05-20T18:03:17.778Z,92.40
2023-05-20T18:05:46.163Z,92.40
2023-05-20T18:08:14.390Z,92.50
2023-05-20T18:10:42.659Z,92.50
2023-05-20T18:13:10.970Z,92.60
2023-05-20T18:15:39.306Z,92.60
2023-05-20T18:18:09.116Z,92.60
2023-05-20T18:20:37.643Z,92.90
2023-05-20T18:23:05.967Z,92.50
2023-05-20T18:25:34.229Z,92.60
2023-05-20T18:28:03.109Z,92.60
2023-05-20T18:30:31.482Z,92.70
2023-05-20T18:32:59.790Z,92.70
2023-05-20T18:35:29.501Z,92.80
2023-05-20T18:38:00.135Z,93.00
2023-05-20T18:40:29.128Z,93.00
2023-05-20T18:42:59.648Z,93.00
2023-05-20T18:45:27.979Z,93.10
2023-05-20T18:47:59.376Z,93.20
2023-05-20T18:50:29.200Z,93.20
2023-05-20T18:52:57.698Z,93.30
2023-05-20T18:55:26.858Z,93.40
2023-05-20T18:57:55.093Z,93.50
2023-05-20T19:00:26.025Z,93.60
2023-05-20T19:02:58.110Z,93.70
2023-05-20T19:05:26.628Z,93.80
2023-05-20T19:07:56.362Z,93.90
2023-05-20T19:10:24.768Z,94.00
2023-05-20T19:12:52.941Z,94.10
2023-05-20T19:15:21.272Z,94.30
2023-05-20T19:17:49.575Z,94.40
2023-05-20T19:20:18.076Z,94.60
2023-05-20T19:22:46.387Z,94.70
2023-05-20T19:25:16.202Z,94.80
2023-05-20T19:27:44.477Z,94.90
2023-05-20T19:30:13.529Z,95.10
2023-05-20T19:32:44.094Z,95.20
2023-05-20T19:35:12.444Z,95.40
2023-05-20T19:37:40.767Z,95.60
2023-05-20T19:40:10.298Z,95.60
2023-05-20T19:42:39.895Z,95.80
2023-05-20T19:45:09.564Z,95.90
2023-05-20T19:47:38.129Z,96.00
2023-05-20T19:50:07.393Z,96.10
2023-05-20T19:52:35.994Z,96.20
2023-05-20T19:55:04.463Z,96.40
2023-05-20T19:57:33.082Z,96.50
2023-05-20T20:00:07.344Z,96.70
2023-05-20T20:02:41.581Z,97.00
2023-05-20T20:05:10.511Z,97.10
2023-05-20T20:07:38.839Z,97.30
2023-05-20T20:10:08.558Z,97.50
2023-05-20T20:12:36.806Z,97.70
2023-05-20T20:15:07.357Z,97.90
2023-05-20T20:17:35.780Z,98.20
2023-05-20T20:20:07.297Z,98.60
2023-05-20T20:22:38.128Z,99.00
2023-05-20T20:25:06.972Z,99.60
2023-05-20T20:27:35.666Z,99.90
2023-05-20T20:30:03.939Z,99.90
2023-05-20T20:32:35.100Z,99.90
2023-05-20T20:35:06.184Z,99.90
2023-05-20T20:37:35.549Z,99.90
2023-05-20T20:40:08.519Z,99.90
2023-05-20T20:42:37.522Z,99.90
2023-05-20T20:45:06.528Z,99.90
2023-05-20T20:47:38.702Z,99.90
2023-05-20T20:50:08.273Z,99.90
2023-05-20T20:52:38.697Z,99.90
2023-05-20T20:55:08.140Z,99.90
2023-05-20T20:57:36.945Z,99.90
2023-05-20T21:00:16.052Z,99.90
2023-05-20T21:02:45.906Z,99.90
2023-05-20T21:05:16.932Z,99.90
2023-05-20T21:07:49.762Z,99.90
2023-05-20T21:10:18.291Z,99.90
2023-05-20T21:12:48.676Z,99.90
2023-05-20T21:15:17.104Z,99.90
2023-05-20T21:17:46.758Z,99.90
2023-05-20T21:20:16.271Z,99.90
2023-05-20T21:22:44.683Z,99.90
2023-05-20T21:25:13.216Z,99.90
2023-05-20T21:27:42.284Z,99.90
2023-05-20T21:30:11.643Z,99.90
2023-05-20T21:32:40.175Z,99.90
2023-05-20T21:35:11.220Z,99.90
2023-05-20T21:37:39.589Z,99.90
2023-05-20T21:40:09.105Z,99.90
2023-05-20T21:42:37.939Z,99.90
2023-05-20T21:45:07.458Z,99.90
2023-05-20T21:47:35.890Z,99.90
2023-05-20T21:50:04.546Z,99.90
2023-05-20T21:52:34.239Z,99.90
2023-05-20T21:55:02.503Z,99.90
2023-05-20T21:57:33.319Z,99.90
2023-05-20T22:00:05.597Z,99.90
2023-05-20T22:02:33.910Z,99.90
2023-05-20T22:05:02.265Z,99.90
2023-05-20T22:07:30.784Z,99.90
2023-05-20T22:10:00.836Z,99.90
2023-05-20T22:12:29.374Z,99.90
2023-05-20T22:14:57.806Z,99.90
2023-05-20T22:17:26.249Z,99.90
2023-05-20T22:19:54.996Z,99.90
2023-05-20T22:22:23.270Z,99.90
2023-05-20T22:24:51.655Z,99.90
2023-05-20T22:27:21.456Z,99.90
2023-05-20T22:29:49.678Z,99.90
2023-05-20T22:32:17.990Z,99.90
2023-05-20T22:34:46.511Z,99.90
2023-05-20T22:37:15.951Z,99.90
2023-05-20T22:39:44.198Z,99.90
2023-05-20T22:42:12.562Z,99.90
2023-05-20T22:44:42.307Z,99.90
2023-05-20T22:47:10.534Z,99.90
2023-05-20T22:49:40.536Z,99.90
2023-05-20T22:52:08.992Z,99.90
2023-05-20T22:54:37.227Z,99.90
2023-05-20T22:57:06.081Z,99.90
2023-05-20T22:59:34.421Z,99.90
2023-05-20T23:02:06.833Z,99.90
2023-05-20T23:04:35.299Z,99.90
2023-05-20T23:07:03.650Z,99.90
2023-05-20T23:09:31.978Z,99.90
2023-05-20T23:12:02.649Z,99.90
2023-05-20T23:14:31.583Z,99.90
2023-05-20T23:16:59.987Z,99.90
2023-05-20T23:19:29.922Z,99.90
2023-05-20T23:21:58.243Z,99.90
2023-05-20T23:24:26.676Z,99.90
2023-05-20T23:26:57.145Z,99.90
2023-05-20T23:29:28.830Z,99.90
2023-05-20T23:31:57.017Z,99.90
2023-05-20T23:34:25.300Z,99.90
2023-05-20T23:36:54.900Z,99.90
2023-05-20T23:39:25.635Z,99.90
2023-05-20T23:41:53.850Z,99.90
2023-05-20T23:44:22.235Z,99.90
2023-05-20T23:46:51.127Z,99.90
2023-05-20T23:49:22.562Z,99.90
2023-05-20T23:51:51.464Z,99.90
2023-05-20T23:54:23.423Z,99.90
2023-05-20T23:56:51.697Z,99.90
2023-05-20T23:59:19.881Z,99.90
